Time;durP1;ratioP1;P1;durP2;ratioP2;P2;SDS_P1;SDS_P2;PMS_P1;PMS_P2;Temp;Humidity;BMP_temperature;BMP_pressure;BME280_temperature;BME280_humidity;BME280_pressure;Samples;Min_cycle;Max_cycle;Signal;HPM_P1;HPM_P2
2021/07/16 00:02:22;;;;;;;9.20;3.67;;;;;;;;;;4991649;28;20050;-76
2021/07/16 00:04:48;;;;;;;8.18;3.42;;;;;;;;;;4989855;28;20030;-76
2021/07/16 00:07:13;;;;;;;8.63;3.45;;;;;;;;;;4988506;28;20116;-77
2021/07/16 00:09:39;;;;;;;7.90;3.50;;;;;;;;;;4988748;28;20405;-76
2021/07/16 00:12:05;;;;;;;6.55;3.15;;;;;;;;;;4988170;28;20456;-76
2021/07/16 00:14:32;;;;;;;12.73;3.70;;;;;;;;;;4990267;28;20105;-76
2021/07/16 00:16:59;;;;;;;7.97;3.35;;;;;;;;;;4989395;28;20030;-76
2021/07/16 00:19:24;;;;;;;7.65;3.15;;;;;;;;;;4997403;28;20126;-76
2021/07/16 00:21:50;;;;;;;6.78;3.00;;;;;;;;;;4987796;28;20071;-76
2021/07/16 00:24:16;;;;;;;10.40;3.60;;;;;;;;;;4988122;28;20038;-75
2021/07/16 00:26:41;;;;;;;9.30;3.70;;;;;;;;;;4993434;28;20520;-78
2021/07/16 00:29:07;;;;;;;7.95;3.63;;;;;;;;;;4987793;28;20034;-79
2021/07/16 00:31:35;;;;;;;6.72;3.53;;;;;;;;;;4989996;28;20030;-78
2021/07/16 00:34:00;;;;;;;8.70;3.58;;;;;;;;;;5010401;28;20022;-76
2021/07/16 00:36:26;;;;;;;6.43;3.30;;;;;;;;;;5003507;28;20038;-75
2021/07/16 00:38:51;;;;;;;9.35;3.55;;;;;;;;;;4989554;28;20076;-76
2021/07/16 00:41:17;;;;;;;9.48;3.03;;;;;;;;;;4988753;28;20030;-76
2021/07/16 00:43:42;;;;;;;8.90;3.60;;;;;;;;;;4971646;28;20031;-75
2021/07/16 00:46:08;;;;;;;7.35;3.60;;;;;;;;;;4971290;28;20121;-76
2021/07/16 00:48:33;;;;;;;6.82;3.05;;;;;;;;;;5004960;28;20046;-76
2021/07/16 00:50:59;;;;;;;7.95;3.17;;;;;;;;;;4984539;28;20121;-76
2021/07/16 00:53:25;;;;;;;7.78;3.00;;;;;;;;;;4980461;28;20084;-77
2021/07/16 00:55:51;;;;;;;7.47;3.30;;;;;;;;;;4975776;28;20501;-77
2021/07/16 00:58:17;;;;;;;6.78;3.15;;;;;;;;;;5007100;28;20126;-77
2021/07/16 01:00:43;;;;;;;5.70;2.90;;;;;;;;;;4971875;28;20314;-76
2021/07/16 01:03:09;;;;;;;5.97;3.15;;;;;;;;;;4969573;28;20730;-77
2021/07/16 01:05:35;;;;;;;6.90;2.97;;;;;;;;;;4967187;28;20674;-76
2021/07/16 01:08:02;;;;;;;6.18;3.30;;;;;;;;;;4967781;28;20031;-77
2021/07/16 01:10:30;;;;;;;7.32;3.63;;;;;;;;;;4966475;28;20114;-77
2021/07/16 01:12:56;;;;;;;6.57;3.45;;;;;;;;;;4966692;28;20126;-76
2021/07/16 01:15:23;;;;;;;6.20;2.97;;;;;;;;;;4962542;28;20099;-77
2021/07/16 01:17:49;;;;;;;7.55;3.65;;;;;;;;;;4967666;28;20126;-77
2021/07/16 01:20:18;;;;;;;5.47;3.20;;;;;;;;;;4947036;28;20123;-76
2021/07/16 01:22:45;;;;;;;8.32;3.85;;;;;;;;;;4968114;28;20022;-76
2021/07/16 01:25:15;;;;;;;7.65;3.72;;;;;;;;;;4967760;28;20397;-77
2021/07/16 01:27:43;;;;;;;8.60;3.30;;;;;;;;;;4973265;28;20082;-77
2021/07/16 01:30:11;;;;;;;6.63;3.10;;;;;;;;;;4968574;28;20038;-76
2021/07/16 01:32:37;;;;;;;5.78;3.08;;;;;;;;;;4969371;28;20037;-77
2021/07/16 01:35:04;;;;;;;14.40;4.45;;;;;;;;;;4970997;28;20576;-76
2021/07/16 01:37:30;;;;;;;6.05;3.70;;;;;;;;;;4973008;28;20042;-76
2021/07/16 01:39:57;;;;;;;12.32;3.95;;;;;;;;;;4971911;28;20125;-77
2021/07/16 01:42:23;;;;;;;6.00;3.22;;;;;;;;;;4968846;28;20031;-76
2021/07/16 01:44:48;;;;;;;10.02;4.00;;;;;;;;;;4972610;28;20517;-77
2021/07/16 01:47:14;;;;;;;9.95;4.45;;;;;;;;;;4950564;28;20101;-76
2021/07/16 01:49:39;;;;;;;8.68;3.88;;;;;;;;;;4986476;28;20014;-76
2021/07/16 01:52:05;;;;;;;10.48;4.15;;;;;;;;;;4969076;28;20490;-77
2021/07/16 01:54:31;;;;;;;9.48;3.88;;;;;;;;;;4972046;28;20027;-76
2021/07/16 01:56:57;;;;;;;11.77;4.60;;;;;;;;;;4970350;28;20031;-77
2021/07/16 01:59:24;;;;;;;9.70;4.50;;;;;;;;;;4968700;28;20655;-76
2021/07/16 02:01:49;;;;;;;7.75;3.88;;;;;;;;;;4971924;28;20027;-76
2021/07/16 02:04:15;;;;;;;7.97;5.00;;;;;;;;;;4969353;28;20146;-76
2021/07/16 02:06:40;;;;;;;12.70;4.80;;;;;;;;;;4969121;28;20066;-77
2021/07/16 02:09:07;;;;;;;12.88;5.22;;;;;;;;;;4968593;28;20050;-76
2021/07/16 02:11:33;;;;;;;8.65;4.47;;;;;;;;;;4954649;28;20031;-76
2021/07/16 02:13:58;;;;;;;8.88;4.82;;;;;;;;;;4973875;28;20035;-83
2021/07/16 02:16:24;;;;;;;8.68;4.90;;;;;;;;;;4954493;28;20601;-83
2021/07/16 02:18:54;;;;;;;10.82;4.55;;;;;;;;;;4972067;28;20418;-83
2021/07/16 02:21:21;;;;;;;8.52;4.53;;;;;;;;;;4969140;28;20097;-83
2021/07/16 02:23:47;;;;;;;8.63;5.03;;;;;;;;;;4968709;28;20090;-84
2021/07/16 02:26:13;;;;;;;8.75;5.82;;;;;;;;;;4970580;28;20134;-82
2021/07/16 02:28:39;;;;;;;11.15;5.35;;;;;;;;;;4972104;28;20091;-82
2021/07/16 02:31:06;;;;;;;18.13;5.65;;;;;;;;;;4969051;28;20453;-83
2021/07/16 02:33:32;;;;;;;12.88;6.70;;;;;;;;;;4971184;28;20061;-83
2021/07/16 02:35:58;;;;;;;18.52;6.63;;;;;;;;;;4966060;28;20019;-83
2021/07/16 02:38:24;;;;;;;11.63;6.53;;;;;;;;;;4971688;28;20030;-85
2021/07/16 02:40:51;;;;;;;16.50;7.97;;;;;;;;;;4965908;28;20038;-84
2021/07/16 02:43:16;;;;;;;14.48;7.47;;;;;;;;;;4970914;28;20098;-77
2021/07/16 02:45:43;;;;;;;14.50;6.55;;;;;;;;;;4969234;28;20242;-76
2021/07/16 02:48:09;;;;;;;13.02;6.30;;;;;;;;;;4965719;28;20035;-76
2021/07/16 02:50:38;;;;;;;17.33;6.93;;;;;;;;;;4971936;28;20457;-77
2021/07/16 02:53:11;;;;;;;15.73;6.55;;;;;;;;;;4967861;28;20035;-77
2021/07/16 02:55:37;;;;;;;17.65;7.47;;;;;;;;;;4970846;28;20061;-76
2021/07/16 02:58:04;;;;;;;13.43;6.13;;;;;;;;;;4967708;28;20035;-77
2021/07/16 03:00:30;;;;;;;15.57;7.10;;;;;;;;;;4970672;28;20040;-77
2021/07/16 03:02:57;;;;;;;11.95;6.35;;;;;;;;;;4967968;28;20042;-76
2021/07/16 03:05:27;;;;;;;13.40;6.57;;;;;;;;;;4971015;28;20042;-77
2021/07/16 03:07:54;;;;;;;14.23;6.18;;;;;;;;;;4969514;28;20026;-76
2021/07/16 03:10:25;;;;;;;16.10;6.05;;;;;;;;;;4969782;28;20019;-76
2021/07/16 03:12:52;;;;;;;14.25;6.18;;;;;;;;;;4969553;28;20110;-77
2021/07/16 03:15:20;;;;;;;12.52;5.90;;;;;;;;;;4969302;28;20046;-76
2021/07/16 03:17:46;;;;;;;13.35;5.60;;;;;;;;;;4966894;28;20105;-76
2021/07/16 03:20:21;;;;;;;11.63;5.57;;;;;;;;;;4967975;28;20490;-76
2021/07/16 03:22:46;;;;;;;14.43;6.75;;;;;;;;;;4969338;28;20026;-77
2021/07/16 03:25:14;;;;;;;14.63;5.60;;;;;;;;;;4969124;28;20041;-76
2021/07/16 03:27:40;;;;;;;15.02;5.75;;;;;;;;;;4969916;28;21178;-77
2021/07/16 03:30:10;;;;;;;11.23;5.28;;;;;;;;;;4969481;28;20118;-76
2021/07/16 03:32:37;;;;;;;19.45;7.15;;;;;;;;;;4967512;28;20019;-77
2021/07/16 03:35:07;;;;;;;17.73;6.10;;;;;;;;;;4969413;28;20106;-76
2021/07/16 03:37:33;;;;;;;13.45;5.07;;;;;;;;;;4968173;28;20506;-76
2021/07/16 03:39:58;;;;;;;18.15;6.05;;;;;;;;;;4969288;28;20046;-77
2021/07/16 03:42:24;;;;;;;10.77;5.53;;;;;;;;;;4969501;28;20050;-76
2021/07/16 03:44:49;;;;;;;13.85;5.72;;;;;;;;;;4950200;28;20031;-77
2021/07/16 03:47:16;;;;;;;12.32;5.13;;;;;;;;;;4951928;28;20138;-77
2021/07/16 03:49:42;;;;;;;8.93;5.18;;;;;;;;;;4971038;28;20409;-76
2021/07/16 03:52:08;;;;;;;12.63;5.18;;;;;;;;;;4969004;28;20054;-76
2021/07/16 03:54:35;;;;;;;15.05;5.03;;;;;;;;;;4969695;28;20073;-77
2021/07/16 03:57:01;;;;;;;10.73;5.00;;;;;;;;;;4967746;28;20026;-76
2021/07/16 03:59:27;;;;;;;10.82;5.15;;;;;;;;;;4973464;28;20031;-77
2021/07/16 04:01:52;;;;;;;12.50;4.95;;;;;;;;;;4968942;28;20114;-76
2021/07/16 04:04:18;;;;;;;11.57;5.35;;;;;;;;;;4970289;28;20105;-77
2021/07/16 04:06:51;;;;;;;12.07;4.38;;;;;;;;;;4968170;28;20516;-76
2021/07/16 04:12:24;;;;;;;11.00;4.47;;;;;;;;;;4948656;28;20470;-76
2021/07/16 04:14:51;;;;;;;8.23;4.07;;;;;;;;;;4960006;28;20734;-77
2021/07/16 04:17:23;;;;;;;6.85;3.88;;;;;;;;;;4968418;28;20438;-76
2021/07/16 04:19:50;;;;;;;8.43;4.15;;;;;;;;;;4975957;28;20073;-75
2021/07/16 04:22:17;;;;;;;10.55;4.28;;;;;;;;;;4960969;28;20107;-75
2021/07/16 04:24:43;;;;;;;7.38;3.88;;;;;;;;;;4965869;28;22850;-75
2021/07/16 04:27:10;;;;;;;7.68;3.75;;;;;;;;;;4965055;28;20034;-75
2021/07/16 04:29:36;;;;;;;7.55;3.88;;;;;;;;;;4969013;28;20030;-75
2021/07/16 04:32:04;;;;;;;9.00;4.20;;;;;;;;;;4968444;28;20038;-77
2021/07/16 04:34:31;;;;;;;8.85;4.15;;;;;;;;;;4969229;28;20031;-76
2021/07/16 04:36:58;;;;;;;4.90;2.95;;;;;;;;;;4968074;28;20037;-76
2021/07/16 04:39:24;;;;;;;6.97;3.50;;;;;;;;;;4950723;28;20588;-78
2021/07/16 04:41:49;;;;;;;7.30;2.85;;;;;;;;;;4970227;28;20034;-75
2021/07/16 04:44:15;;;;;;;11.68;3.47;;;;;;;;;;4969810;28;20030;-75
2021/07/16 04:46:41;;;;;;;12.40;3.30;;;;;;;;;;4968594;28;20517;-76
2021/07/16 04:49:06;;;;;;;7.05;3.00;;;;;;;;;;4968376;28;20023;-76
2021/07/16 04:51:34;;;;;;;10.65;2.85;;;;;;;;;;4970072;28;20023;-75
2021/07/16 04:54:00;;;;;;;6.78;3.05;;;;;;;;;;4965227;28;20046;-76
2021/07/16 04:56:26;;;;;;;9.43;2.63;;;;;;;;;;4967040;28;20073;-75
2021/07/16 04:58:52;;;;;;;7.80;2.58;;;;;;;;;;4969965;28;20041;-75
2021/07/16 05:01:21;;;;;;;8.30;2.78;;;;;;;;;;4955450;28;20030;-75
2021/07/16 05:03:48;;;;;;;4.78;2.72;;;;;;;;;;4966282;28;20037;-75
2021/07/16 05:06:13;;;;;;;7.72;2.80;;;;;;;;;;4969090;28;20494;-75
2021/07/16 05:08:39;;;;;;;8.82;3.38;;;;;;;;;;4973791;28;20042;-75
2021/07/16 05:11:06;;;;;;;6.45;2.50;;;;;;;;;;4948337;28;20049;-76
2021/07/16 05:13:32;;;;;;;9.13;2.70;;;;;;;;;;4966889;28;20066;-76
2021/07/16 05:15:59;;;;;;;5.32;2.58;;;;;;;;;;4987952;28;20027;-76
2021/07/16 05:18:25;;;;;;;7.53;2.78;;;;;;;;;;4972120;28;20104;-76
2021/07/16 05:20:50;;;;;;;7.68;2.55;;;;;;;;;;4971589;28;20133;-76
2021/07/16 05:23:16;;;;;;;6.90;2.20;;;;;;;;;;4971231;28;20678;-75
2021/07/16 05:25:43;;;;;;;7.63;2.60;;;;;;;;;;4967045;28;20398;-76
2021/07/16 05:28:09;;;;;;;7.22;2.50;;;;;;;;;;4972345;28;20061;-76
2021/07/16 05:30:34;;;;;;;5.18;2.25;;;;;;;;;;4971719;28;20477;-76
2021/07/16 05:33:00;;;;;;;6.07;2.75;;;;;;;;;;4970560;28;20035;-77
2021/07/16 05:35:25;;;;;;;9.10;2.75;;;;;;;;;;4969280;28;20354;-76
2021/07/16 05:37:51;;;;;;;5.90;2.30;;;;;;;;;;4970263;28;20041;-77
2021/07/16 05:40:18;;;;;;;9.32;2.90;;;;;;;;;;4969309;28;20038;-76
2021/07/16 05:42:43;;;;;;;6.45;2.17;;;;;;;;;;4971802;28;20077;-76
2021/07/16 05:45:09;;;;;;;7.07;2.28;;;;;;;;;;4968679;28;20031;-76
2021/07/16 05:47:34;;;;;;;7.68;2.40;;;;;;;;;;4972649;28;20461;-76
2021/07/16 05:50:00;;;;;;;7.78;2.13;;;;;;;;;;4967843;28;20035;-76
2021/07/16 05:52:27;;;;;;;7.18;2.35;;;;;;;;;;4971203;28;20395;-78
2021/07/16 05:54:53;;;;;;;6.13;2.03;;;;;;;;;;4968798;28;20094;-76
2021/07/16 05:57:19;;;;;;;7.38;2.17;;;;;;;;;;4969396;28;20038;-76
2021/07/16 05:59:45;;;;;;;6.60;2.83;;;;;;;;;;4972673;28;20038;-76
2021/07/16 06:02:10;;;;;;;6.47;2.33;;;;;;;;;;4970012;28;20038;-76
2021/07/16 06:04:37;;;;;;;4.80;1.90;;;;;;;;;;4970263;28;20038;-76
2021/07/16 06:07:03;;;;;;;6.90;1.98;;;;;;;;;;4969772;28;20046;-76
2021/07/16 06:09:29;;;;;;;9.40;2.22;;;;;;;;;;4968737;28;20026;-76
2021/07/16 06:11:55;;;;;;;9.07;1.98;;;;;;;;;;4971263;28;20026;-76
2021/07/16 06:14:22;;;;;;;6.72;2.05;;;;;;;;;;4971298;28;20663;-77
2021/07/16 06:16:49;;;;;;;11.32;2.38;;;;;;;;;;4938428;28;20494;-76
2021/07/16 06:19:16;;;;;;;5.05;2.10;;;;;;;;;;4969911;28;20050;-77
2021/07/16 06:21:41;;;;;;;4.75;2.00;;;;;;;;;;4954280;28;20066;-77
2021/07/16 06:24:07;;;;;;;4.82;2.30;;;;;;;;;;4969603;28;20062;-76
2021/07/16 06:26:32;;;;;;;6.45;1.90;;;;;;;;;;4968546;28;20046;-76
2021/07/16 06:28:58;;;;;;;14.32;2.00;;;;;;;;;;4970271;28;20478;-76
2021/07/16 06:31:23;;;;;;;5.45;1.58;;;;;;;;;;4970802;28;20426;-75
2021/07/16 06:33:49;;;;;;;4.45;1.73;;;;;;;;;;4971783;28;20397;-77
2021/07/16 06:36:14;;;;;;;3.80;1.83;;;;;;;;;;4965389;28;20121;-75
2021/07/16 06:38:42;;;;;;;6.95;2.20;;;;;;;;;;4971254;28;20026;-75
2021/07/16 06:41:09;;;;;;;8.02;2.22;;;;;;;;;;4969319;28;20039;-75
2021/07/16 06:43:34;;;;;;;5.35;1.90;;;;;;;;;;4971279;28;20526;-76
2021/07/16 06:45:59;;;;;;;8.13;2.15;;;;;;;;;;4971588;28;20038;-76
2021/07/16 06:48:25;;;;;;;6.05;2.15;;;;;;;;;;4970271;28;20101;-75
2021/07/16 06:50:51;;;;;;;6.35;1.90;;;;;;;;;;4969776;28;20042;-76
2021/07/16 06:53:16;;;;;;;3.83;1.83;;;;;;;;;;4966455;28;20027;-76
2021/07/16 06:55:42;;;;;;;5.57;2.13;;;;;;;;;;4968366;28;20074;-76
2021/07/16 06:58:07;;;;;;;5.38;2.08;;;;;;;;;;4967194;28;20039;-75
2021/07/16 07:00:34;;;;;;;8.70;2.42;;;;;;;;;;4969690;28;20035;-76
2021/07/16 07:03:00;;;;;;;6.93;1.98;;;;;;;;;;4968778;28;20058;-74
2021/07/16 07:05:26;;;;;;;7.97;2.80;;;;;;;;;;4967063;28;20113;-75
2021/07/16 07:07:52;;;;;;;11.65;2.28;;;;;;;;;;4973069;28;20122;-75
2021/07/16 07:10:18;;;;;;;5.30;2.58;;;;;;;;;;4971471;28;20018;-75
2021/07/16 07:12:44;;;;;;;10.23;2.78;;;;;;;;;;4971091;28;20371;-74
2021/07/16 07:15:11;;;;;;;7.63;2.63;;;;;;;;;;4953160;28;20110;-75
2021/07/16 07:17:38;;;;;;;6.97;2.70;;;;;;;;;;4968415;28;20050;-76
2021/07/16 07:20:04;;;;;;;7.93;2.60;;;;;;;;;;4967440;28;20100;-76
2021/07/16 07:22:30;;;;;;;7.20;2.40;;;;;;;;;;4968474;28;20428;-76
2021/07/16 07:24:55;;;;;;;4.35;1.90;;;;;;;;;;4968349;28;20034;-76
2021/07/16 07:27:21;;;;;;;7.40;3.15;;;;;;;;;;4949939;28;20035;-78
2021/07/16 07:29:46;;;;;;;9.90;2.90;;;;;;;;;;4969503;28;20390;-75
2021/07/16 07:32:12;;;;;;;6.90;2.60;;;;;;;;;;4967342;28;20386;-75
2021/07/16 07:34:38;;;;;;;6.43;2.90;;;;;;;;;;4937251;28;20538;-76
2021/07/16 07:37:04;;;;;;;6.45;3.17;;;;;;;;;;4951096;28;20035;-75
2021/07/16 07:39:29;;;;;;;6.45;2.88;;;;;;;;;;4951354;28;20046;-74
2021/07/16 07:41:55;;;;;;;5.57;3.28;;;;;;;;;;4960784;28;20031;-74
2021/07/16 07:44:21;;;;;;;7.93;2.85;;;;;;;;;;4968703;28;20030;-74
2021/07/16 07:46:46;;;;;;;7.50;2.78;;;;;;;;;;4961351;28;20031;-75
2021/07/16 07:49:13;;;;;;;8.55;2.90;;;;;;;;;;4961852;28;20018;-74
2021/07/16 07:51:39;;;;;;;6.65;2.80;;;;;;;;;;4951175;28;20057;-76
2021/07/16 07:54:06;;;;;;;4.07;2.67;;;;;;;;;;4968552;28;20031;-75
2021/07/16 07:56:32;;;;;;;14.30;3.28;;;;;;;;;;4969773;28;20023;-75
2021/07/16 07:58:58;;;;;;;8.68;3.47;;;;;;;;;;4969084;28;20039;-74
2021/07/16 08:01:24;;;;;;;10.63;3.63;;;;;;;;;;4967008;28;20030;-75
2021/07/16 08:03:50;;;;;;;16.13;4.22;;;;;;;;;;4950052;28;20371;-75
2021/07/16 08:06:16;;;;;;;13.57;3.30;;;;;;;;;;4968812;28;20023;-75
2021/07/16 08:08:41;;;;;;;13.38;3.15;;;;;;;;;;4965019;28;20041;-74
2021/07/16 08:11:07;;;;;;;7.63;2.63;;;;;;;;;;4966632;28;20051;-77
2021/07/16 08:13:32;;;;;;;8.50;2.75;;;;;;;;;;4970152;28;20261;-76
2021/07/16 08:15:58;;;;;;;4.25;1.60;;;;;;;;;;4952952;28;20027;-75
2021/07/16 08:18:23;;;;;;;3.38;1.40;;;;;;;;;;4968065;28;20061;-75
2021/07/16 08:20:49;;;;;;;2.35;1.30;;;;;;;;;;4966586;28;20144;-75
2021/07/16 08:23:14;;;;;;;4.38;1.55;;;;;;;;;;4969561;28;20038;-75
2021/07/16 08:25:40;;;;;;;3.42;1.20;;;;;;;;;;4969407;28;20045;-75
2021/07/16 08:28:06;;;;;;;5.97;1.15;;;;;;;;;;4969367;28;20066;-75
2021/07/16 08:30:31;;;;;;;3.20;1.38;;;;;;;;;;4970377;28;20117;-75
2021/07/16 08:32:57;;;;;;;4.05;1.05;;;;;;;;;;4958056;28;20034;-76
2021/07/16 08:35:22;;;;;;;2.90;1.13;;;;;;;;;;4954770;28;20013;-74
2021/07/16 08:37:48;;;;;;;4.70;1.08;;;;;;;;;;4972672;28;20145;-74
2021/07/16 08:40:14;;;;;;;2.95;1.27;;;;;;;;;;4967991;28;20486;-74
2021/07/16 08:42:39;;;;;;;6.03;1.35;;;;;;;;;;4966089;28;20035;-76
2021/07/16 08:45:07;;;;;;;1.83;0.98;;;;;;;;;;4970619;28;20034;-76
2021/07/16 08:47:33;;;;;;;7.00;1.20;;;;;;;;;;4974786;28;20023;-75
2021/07/16 08:50:01;;;;;;;5.47;1.30;;;;;;;;;;4972138;28;20042;-76
2021/07/16 08:52:28;;;;;;;8.13;1.55;;;;;;;;;;4954826;28;20054;-75
2021/07/16 08:54:55;;;;;;;3.40;1.35;;;;;;;;;;4972231;28;20033;-75
2021/07/16 08:57:24;;;;;;;2.75;1.20;;;;;;;;;;4970709;28;20125;-76
2021/07/16 08:59:50;;;;;;;5.03;1.73;;;;;;;;;;4977415;28;20169;-75
2021/07/16 09:02:15;;;;;;;4.30;0.82;;;;;;;;;;4970138;28;20129;-75
2021/07/16 09:04:42;;;;;;;2.33;0.88;;;;;;;;;;4967146;28;20055;-75
2021/07/16 09:07:08;;;;;;;9.75;1.20;;;;;;;;;;4970788;28;20030;-75
2021/07/16 09:09:38;;;;;;;7.47;1.10;;;;;;;;;;4977682;28;20046;-75
2021/07/16 09:12:14;;;;;;;5.75;1.00;;;;;;;;;;4972087;28;20375;-76
2021/07/16 09:14:41;;;;;;;3.80;0.90;;;;;;;;;;4962997;28;20042;-76
2021/07/16 09:17:09;;;;;;;6.40;1.20;;;;;;;;;;4966362;28;20045;-75
2021/07/16 09:19:39;;;;;;;6.50;1.30;;;;;;;;;;4971842;28;20370;-75
2021/07/16 09:22:11;;;;;;;4.50;0.80;;;;;;;;;;4968100;28;20027;-75
2021/07/16 09:24:40;;;;;;;4.00;0.50;;;;;;;;;;4979737;28;20031;-76
2021/07/16 09:27:30;;;;;;;7.97;1.02;;;;;;;;;;4969369;28;20066;-75
2021/07/16 09:30:19;;;;;;;5.88;0.90;;;;;;;;;;4972519;28;20494;-75
2021/07/16 09:32:51;;;;;;;4.80;0.95;;;;;;;;;;4966375;28;20065;-75
2021/07/16 09:35:32;;;;;;;2.15;0.90;;;;;;;;;;4969309;28;20027;-76
2021/07/16 09:38:05;;;;;;;3.33;0.90;;;;;;;;;;4973558;28;20062;-76
2021/07/16 09:40:33;;;;;;;3.20;0.65;;;;;;;;;;4971393;28;20038;-75
2021/07/16 09:43:20;;;;;;;5.40;0.90;;;;;;;;;;4968579;28;20022;-75
2021/07/16 09:45:48;;;;;;;3.80;0.95;;;;;;;;;;4970889;28;20054;-75
2021/07/16 09:48:17;;;;;;;2.30;0.70;;;;;;;;;;4971917;28;20033;-75
2021/07/16 09:50:43;;;;;;;4.05;0.63;;;;;;;;;;4968543;28;20409;-76
2021/07/16 09:53:14;;;;;;;4.00;0.93;;;;;;;;;;4963952;28;20045;-75
2021/07/16 09:55:41;;;;;;;4.83;1.07;;;;;;;;;;4971237;28;20035;-76
2021/07/16 09:58:22;;;;;;;6.05;0.82;;;;;;;;;;4951492;28;20806;-75
2021/07/16 10:00:51;;;;;;;5.85;1.10;;;;;;;;;;4963355;28;20049;-75
2021/07/16 10:03:17;;;;;;;4.28;0.73;;;;;;;;;;4970921;28;20038;-74
2021/07/16 10:05:44;;;;;;;4.78;0.88;;;;;;;;;;4955374;28;20026;-75
2021/07/16 10:08:10;;;;;;;5.00;0.85;;;;;;;;;;4971606;28;20125;-74
2021/07/16 10:10:36;;;;;;;5.88;0.93;;;;;;;;;;4972100;28;20546;-74
2021/07/16 10:13:02;;;;;;;5.10;1.23;;;;;;;;;;4955889;28;20035;-82
2021/07/16 10:15:28;;;;;;;6.00;0.95;;;;;;;;;;4963857;28;20069;-82
2021/07/16 10:17:54;;;;;;;1.77;0.77;;;;;;;;;;4971550;28;20095;-82
2021/07/16 10:20:19;;;;;;;1.90;0.65;;;;;;;;;;4969894;28;20035;-81
2021/07/16 10:22:48;;;;;;;3.28;0.80;;;;;;;;;;4971736;28;20089;-82
2021/07/16 10:25:16;;;;;;;3.05;0.95;;;;;;;;;;4971556;28;20054;-84
2021/07/16 10:27:43;;;;;;;2.33;0.82;;;;;;;;;;4970499;28;20019;-84
2021/07/16 10:30:11;;;;;;;3.92;1.20;;;;;;;;;;4970915;28;20117;-83
2021/07/16 10:32:54;;;;;;;5.63;0.73;;;;;;;;;;4963506;28;20029;-84
2021/07/16 10:35:21;;;;;;;2.38;0.70;;;;;;;;;;4959362;28;20050;-83
2021/07/16 10:37:49;;;;;;;4.90;1.13;;;;;;;;;;4966579;28;20165;-83
2021/07/16 10:40:46;;;;;;;1.20;0.70;;;;;;;;;;4949808;28;20465;-83
2021/07/16 10:43:23;;;;;;;1.35;0.75;;;;;;;;;;4969920;28;20029;-75
2021/07/16 10:45:50;;;;;;;3.40;0.60;;;;;;;;;;4964109;28;20030;-75
2021/07/16 10:48:20;;;;;;;8.05;1.45;;;;;;;;;;4969800;28;20035;-76
2021/07/16 10:50:51;;;;;;;4.20;0.75;;;;;;;;;;4969901;28;20030;-76
2021/07/16 10:53:38;;;;;;;1.25;0.52;;;;;;;;;;4967549;28;20042;-75
2021/07/16 10:56:18;;;;;;;3.20;0.50;;;;;;;;;;4961818;28;20478;-75
2021/07/16 10:58:45;;;;;;;2.70;1.40;;;;;;;;;;4962658;28;20670;-76
2021/07/16 11:01:12;;;;;;;3.08;1.65;;;;;;;;;;4969840;28;20039;-76
2021/07/16 11:03:46;;;;;;;7.30;2.00;;;;;;;;;;4937475;28;20129;-76
2021/07/16 11:06:17;;;;;;;7.57;2.50;;;;;;;;;;4967198;28;20043;-76
2021/07/16 11:08:42;;;;;;;5.47;2.00;;;;;;;;;;4970703;28;20022;-76
2021/07/16 11:11:16;;;;;;;6.32;1.60;;;;;;;;;;4970307;28;20540;-76
2021/07/16 11:13:54;;;;;;;8.25;1.50;;;;;;;;;;4968938;28;20031;-76
2021/07/16 11:18:52;;;;;;;11.48;1.67;;;;;;;;;;4962771;28;20437;-76
2021/07/16 11:21:39;;;;;;;5.47;1.98;;;;;;;;;;4965952;28;20034;-76
2021/07/16 11:24:20;;;;;;;5.95;1.80;;;;;;;;;;4964989;28;20477;-75
2021/07/16 11:26:56;;;;;;;7.57;1.85;;;;;;;;;;4968975;28;20019;-77
2021/07/16 11:29:24;;;;;;;3.88;1.67;;;;;;;;;;4968508;28;20058;-76
2021/07/16 11:32:20;;;;;;;4.65;1.45;;;;;;;;;;4971353;28;20101;-76
2021/07/16 11:34:47;;;;;;;3.78;1.23;;;;;;;;;;4957108;28;20014;-77
2021/07/16 11:37:22;;;;;;;2.45;1.00;;;;;;;;;;4969658;28;20026;-75
2021/07/16 11:39:52;;;;;;;5.68;1.23;;;;;;;;;;4970702;28;20023;-76
2021/07/16 11:42:18;;;;;;;6.13;1.70;;;;;;;;;;4970089;28;20018;-76
2021/07/16 11:44:44;;;;;;;4.53;1.10;;;;;;;;;;4968442;28;20042;-75
2021/07/16 11:47:14;;;;;;;2.90;0.98;;;;;;;;;;4967408;28;20042;-76
2021/07/16 11:49:44;;;;;;;5.07;1.00;;;;;;;;;;4969109;28;20106;-76
2021/07/16 11:52:10;;;;;;;7.88;1.10;;;;;;;;;;4964333;28;20034;-75
2021/07/16 11:54:35;;;;;;;5.10;1.17;;;;;;;;;;4969250;28;20035;-75
2021/07/16 11:57:01;;;;;;;4.78;1.15;;;;;;;;;;4970442;28;20022;-76
2021/07/16 11:59:28;;;;;;;6.95;1.20;;;;;;;;;;4950787;28;20043;-75
2021/07/16 12:02:26;;;;;;;4.38;1.10;;;;;;;;;;4968274;28;20107;-75
2021/07/16 12:04:58;;;;;;;5.05;1.35;;;;;;;;;;4965419;28;20054;-77
2021/07/16 12:07:23;;;;;;;5.00;1.40;;;;;;;;;;4969273;28;20027;-75
2021/07/16 12:09:49;;;;;;;6.03;1.42;;;;;;;;;;4968204;28;20038;-75
2021/07/16 12:12:20;;;;;;;4.32;1.52;;;;;;;;;;4970251;28;20457;-75
2021/07/16 12:14:50;;;;;;;5.95;1.38;;;;;;;;;;4969854;28;20025;-75
2021/07/16 12:17:19;;;;;;;4.20;0.75;;;;;;;;;;4964138;28;20485;-75
2021/07/16 12:19:45;;;;;;;6.05;1.40;;;;;;;;;;4967621;28;20050;-75
2021/07/16 12:22:13;;;;;;;3.72;1.10;;;;;;;;;;4970656;28;20437;-75
2021/07/16 12:24:41;;;;;;;4.82;1.00;;;;;;;;;;4962018;28;20035;-75
2021/07/16 12:27:11;;;;;;;5.28;1.10;;;;;;;;;;4968782;28;20054;-75
2021/07/16 12:29:37;;;;;;;7.68;1.20;;;;;;;;;;4959694;28;20054;-75
2021/07/16 12:32:04;;;;;;;3.92;1.27;;;;;;;;;;4967006;28;20088;-77
2021/07/16 12:34:30;;;;;;;11.50;1.33;;;;;;;;;;4967052;28;20083;-75
2021/07/16 12:37:09;;;;;;;4.72;1.50;;;;;;;;;;4968408;28;20034;-75
2021/07/16 12:39:35;;;;;;;5.22;1.20;;;;;;;;;;4968688;28;20114;-75
2021/07/16 12:42:27;;;;;;;2.83;1.60;;;;;;;;;;4986216;28;20442;-74
2021/07/16 12:45:08;;;;;;;;;;;;;;;;;;4969875;28;20035;-75
2021/07/16 12:47:46;;;;;;;5.63;1.60;;;;;;;;;;4963264;28;19926;-75
2021/07/16 12:50:14;;;;;;;3.78;1.55;;;;;;;;;;4964519;28;20086;-75
2021/07/16 12:52:40;;;;;;;4.35;1.70;;;;;;;;;;4967052;28;20018;-75
2021/07/16 12:55:19;;;;;;;5.53;1.48;;;;;;;;;;4969720;28;20495;-75
2021/07/16 12:57:46;;;;;;;3.33;1.70;;;;;;;;;;4964219;28;20030;-75
2021/07/16 13:00:23;;;;;;;5.57;2.03;;;;;;;;;;4970551;28;20391;-74
2021/07/16 13:02:50;;;;;;;7.63;1.50;;;;;;;;;;4965251;28;20031;-74
2021/07/16 13:05:29;;;;;;;5.40;1.65;;;;;;;;;;4964354;28;20110;-74
2021/07/16 13:08:20;;;;;;;4.85;1.50;;;;;;;;;;4968689;28;20113;-75
2021/07/16 13:11:12;;;;;;;7.05;1.55;;;;;;;;;;4964007;28;20023;-75
2021/07/16 13:13:38;;;;;;;3.55;1.48;;;;;;;;;;4965355;28;20049;-76
2021/07/16 13:16:29;;;;;;;3.25;1.35;;;;;;;;;;4968829;28;20023;-77
2021/07/16 13:18:57;;;;;;;4.80;1.35;;;;;;;;;;4968291;28;20055;-76
2021/07/16 13:21:24;;;;;;;8.82;1.10;;;;;;;;;;4966748;28;20070;-76
2021/07/16 13:23:51;;;;;;;4.20;1.70;;;;;;;;;;4963818;28;20030;-77
2021/07/16 13:26:17;;;;;;;1.88;1.02;;;;;;;;;;4969605;28;20061;-76
2021/07/16 13:28:44;;;;;;;4.80;1.52;;;;;;;;;;4941845;28;20185;-76
2021/07/16 13:31:11;;;;;;;6.55;1.73;;;;;;;;;;4961650;28;20031;-76
2021/07/16 13:33:38;;;;;;;4.40;1.95;;;;;;;;;;4971768;28;20046;-76
2021/07/16 13:36:07;;;;;;;5.45;2.80;;;;;;;;;;4970490;28;20031;-75
2021/07/16 13:38:33;;;;;;;6.85;3.25;;;;;;;;;;4972372;28;20027;-76
2021/07/16 13:41:00;;;;;;;8.38;5.38;;;;;;;;;;4972411;28;20395;-76
2021/07/16 13:43:26;;;;;;;13.82;8.43;;;;;;;;;;4971069;28;20034;-76
2021/07/16 13:45:52;;;;;;;18.83;8.82;;;;;;;;;;4972805;28;20406;-77
2021/07/16 13:48:18;;;;;;;18.20;11.38;;;;;;;;;;4969168;28;20034;-76
2021/07/16 13:50:44;;;;;;;11.40;6.40;;;;;;;;;;4969794;28;20027;-76
2021/07/16 13:53:09;;;;;;;6.78;3.30;;;;;;;;;;4972154;28;20034;-76
2021/07/16 13:55:35;;;;;;;8.10;4.55;;;;;;;;;;4972660;28;20034;-76
2021/07/16 13:58:01;;;;;;;7.65;5.03;;;;;;;;;;4969189;28;20030;-76
2021/07/16 14:00:27;;;;;;;7.10;4.43;;;;;;;;;;4966315;28;20117;-76
2021/07/16 14:02:52;;;;;;;9.10;5.78;;;;;;;;;;4973570;28;20468;-76
2021/07/16 14:05:19;;;;;;;10.00;4.50;;;;;;;;;;4968815;28;20122;-77
2021/07/16 14:07:46;;;;;;;12.43;3.05;;;;;;;;;;4978895;28;20027;-78
2021/07/16 14:10:14;;;;;;;6.55;4.20;;;;;;;;;;4965590;28;20027;-76
2021/07/16 14:12:40;;;;;;;10.07;5.97;;;;;;;;;;4972674;28;20400;-76
2021/07/16 14:15:07;;;;;;;12.23;5.95;;;;;;;;;;4970966;28;20022;-76
2021/07/16 14:17:33;;;;;;;9.95;5.53;;;;;;;;;;4971776;28;20732;-76
2021/07/16 14:19:58;;;;;;;8.38;4.28;;;;;;;;;;4969866;28;20099;-77
2021/07/16 14:22:25;;;;;;;9.35;3.70;;;;;;;;;;4974421;28;20676;-77
2021/07/16 14:24:50;;;;;;;7.97;4.10;;;;;;;;;;4970903;28;20034;-76
2021/07/16 14:27:16;;;;;;;13.50;5.68;;;;;;;;;;5002258;28;20088;-77
2021/07/16 14:29:41;;;;;;;6.13;3.45;;;;;;;;;;4971103;28;20034;-77
2021/07/16 14:32:07;;;;;;;6.53;3.08;;;;;;;;;;4969484;28;20038;-77
2021/07/16 14:34:33;;;;;;;6.93;1.98;;;;;;;;;;4983643;28;20098;-76
2021/07/16 14:36:59;;;;;;;5.63;2.00;;;;;;;;;;4967549;28;20398;-77
2021/07/16 14:39:25;;;;;;;6.15;2.75;;;;;;;;;;4967746;28;20031;-76
2021/07/16 14:41:50;;;;;;;4.10;2.05;;;;;;;;;;4954126;28;20074;-77
2021/07/16 14:44:16;;;;;;;21.13;12.90;;;;;;;;;;4968627;28;20026;-76
2021/07/16 14:46:42;;;;;;;41.40;21.85;;;;;;;;;;4970269;28;20814;-76
2021/07/16 14:49:08;;;;;;;38.05;20.15;;;;;;;;;;4970084;28;20053;-76
2021/07/16 14:51:34;;;;;;;41.85;21.55;;;;;;;;;;4959470;28;20039;-76